createdAt,value
2023-04-14T00:01:18.370Z,100517.88
2023-04-14T00:03:48.250Z,100518.06
2023-04-14T00:06:19.037Z,100518.25
2023-04-14T00:08:48.733Z,100521.22
2023-04-14T00:11:18.454Z,100523.38
2023-04-14T00:13:48.104Z,100529.94
2023-04-14T00:16:17.756Z,100523.00
2023-04-14T00:18:47.661Z,100511.00
2023-04-14T00:21:17.853Z,100515.06
2023-04-14T00:23:47.896Z,100522.38
2023-04-14T00:26:17.650Z,100525.47
2023-04-14T00:28:49.923Z,100527.38
2023-04-14T00:31:20.110Z,100528.94
2023-04-14T00:33:50.203Z,100524.31
2023-04-14T00:36:20.688Z,100530.41
2023-04-14T00:38:51.147Z,100531.63
2023-04-14T00:41:21.160Z,100548.00
2023-04-14T00:43:50.855Z,100539.72
2023-04-14T00:46:20.889Z,100528.31
2023-04-14T00:48:50.983Z,100513.81
2023-04-14T00:51:21.036Z,100508.31
2023-04-14T00:53:51.449Z,100506.09
2023-04-14T00:56:21.094Z,100493.66
2023-04-14T00:58:51.176Z,100487.44
2023-04-14T01:01:20.901Z,100489.09
2023-04-14T01:03:51.009Z,100492.56
2023-04-14T01:06:21.754Z,100493.19
2023-04-14T01:08:51.612Z,100488.25
2023-04-14T01:11:34.975Z,100491.72
2023-04-14T01:14:16.175Z,100494.84
2023-04-14T01:16:47.159Z,100495.69
2023-04-14T01:19:32.109Z,100491.28
2023-04-14T01:22:07.691Z,100485.13
2023-04-14T01:24:53.868Z,100482.38
2023-04-14T01:27:29.169Z,100472.88
2023-04-14T01:30:20.783Z,100467.53
2023-04-14T01:32:53.386Z,100458.31
2023-04-14T01:35:54.567Z,100467.41
2023-04-14T01:38:37.568Z,100460.41
2023-04-14T01:41:08.822Z,100461.63
2023-04-14T01:43:42.342Z,100462.75
2023-04-14T01:46:16.264Z,100456.81
2023-04-14T01:48:50.455Z,100455.03
2023-04-14T01:51:21.030Z,100440.75
2023-04-14T01:53:51.816Z,100429.56
2023-04-14T01:56:21.476Z,100424.53
2023-04-14T01:58:54.287Z,100415.16
2023-04-14T02:01:24.367Z,100409.56
2023-04-14T02:03:54.944Z,100411.44
2023-04-14T02:06:24.657Z,100408.16
2023-04-14T02:08:54.299Z,100397.16
2023-04-14T02:11:23.944Z,100400.69
2023-04-14T02:13:53.624Z,100393.84
2023-04-14T02:16:23.301Z,100383.03
2023-04-14T02:18:52.973Z,100387.59
2023-04-14T02:21:23.005Z,100378.69
2023-04-14T02:23:53.163Z,100367.06
2023-04-14T02:26:24.085Z,100356.28
2023-04-14T02:29:12.407Z,100342.75
2023-04-14T02:31:45.769Z,100327.44
2023-04-14T02:34:15.925Z,100312.94
2023-04-14T02:36:49.462Z,100316.00
2023-04-14T02:39:42.927Z,100316.63
2023-04-14T02:42:17.935Z,100303.56
2023-04-14T02:44:52.152Z,100286.34
2023-04-14T02:47:51.789Z,100291.31
2023-04-14T02:50:22.123Z,100283.88
2023-04-14T02:52:53.541Z,100275.19
2023-04-14T02:55:23.249Z,100269.13
2023-04-14T02:57:54.513Z,100277.44
2023-04-14T03:00:28.007Z,100275.19
2023-04-14T03:02:58.226Z,100260.88
2023-04-14T03:05:27.939Z,100252.56
2023-04-14T03:07:58.729Z,100254.81
2023-04-14T03:10:29.229Z,100247.94
2023-04-14T03:13:00.142Z,100249.59
2023-04-14T03:15:30.531Z,100244.97
2023-04-14T03:18:01.480Z,100249.75
2023-04-14T03:20:32.954Z,100246.72
2023-04-14T03:23:10.041Z,100235.66
2023-04-14T03:25:39.760Z,100225.53
2023-04-14T03:28:17.455Z,100216.78
2023-04-14T03:30:50.515Z,100212.78
2023-04-14T03:33:26.704Z,100202.66
2023-04-14T03:35:57.294Z,100200.44
2023-04-14T03:38:29.511Z,100188.84
2023-04-14T03:41:03.088Z,100186.94
2023-04-14T03:43:34.936Z,100183.88
2023-04-14T03:46:06.856Z,100168.22
2023-04-14T03:48:38.506Z,100182.84
2023-04-14T03:51:10.779Z,100179.94
2023-04-14T03:53:45.468Z,100176.31
2023-04-14T03:56:16.898Z,100175.50
2023-04-14T03:58:52.381Z,100166.44
2023-04-14T04:01:21.349Z,100157.75
2023-04-14T04:03:51.094Z,100161.41
2023-04-14T04:06:20.774Z,100154.84
2023-04-14T04:08:53.448Z,100155.03
2023-04-14T04:11:24.987Z,100140.50
2023-04-14T04:13:54.740Z,100141.78
2023-04-14T04:16:24.534Z,100134.91
2023-04-14T04:18:55.556Z,100141.78
2023-04-14T04:21:25.181Z,100130.97
2023-04-14T04:23:57.977Z,100119.78
2023-04-14T04:26:30.721Z,100117.94
2023-04-14T04:29:00.743Z,100115.66
2023-04-14T04:31:33.041Z,100112.53
2023-04-14T04:34:05.271Z,100115.88
2023-04-14T04:36:34.999Z,100111.09
2023-04-14T04:39:05.024Z,100104.66
2023-04-14T04:41:34.943Z,100090.97
2023-04-14T04:44:05.381Z,100086.00
2023-04-14T04:46:58.319Z,100094.03
2023-04-14T04:49:28.061Z,100089.25
2023-04-14T04:52:01.392Z,100089.88
2023-04-14T04:54:31.178Z,100086.59
2023-04-14T04:57:01.481Z,100088.25
2023-04-14T04:59:31.926Z,100083.28
2023-04-14T05:02:01.742Z,100076.88
2023-04-14T05:04:31.535Z,100074.38
2023-04-14T05:07:01.246Z,100069.19
2023-04-14T05:09:31.749Z,100067.28
2023-04-14T05:12:02.859Z,100065.00
2023-04-14T05:14:32.504Z,100064.81
2023-04-14T05:17:02.918Z,100061.09
2023-04-14T05:19:35.610Z,100060.63
2023-04-14T05:22:05.649Z,100062.09
2023-04-14T05:24:35.371Z,100063.53
2023-04-14T05:27:14.408Z,100065.19
2023-04-14T05:29:44.900Z,100060.47
2023-04-14T05:32:16.125Z,100055.09
2023-04-14T05:34:49.491Z,100039.09
2023-04-14T05:37:20.871Z,100033.94
2023-04-14T05:39:50.952Z,100022.53
2023-04-14T05:42:21.014Z,100025.66
2023-04-14T05:44:50.726Z,100015.06
2023-04-14T05:47:20.901Z,100014.19
2023-04-14T05:49:50.552Z,100007.78
2023-04-14T05:52:20.316Z,100012.94
2023-04-14T05:54:50.670Z,100008.59
2023-04-14T05:57:21.072Z,100019.16
2023-04-14T05:59:50.819Z,100011.34
2023-04-14T06:02:21.276Z,100014.41
2023-04-14T06:04:51.689Z,99999.88
2023-04-14T06:07:22.322Z,100003.63
2023-04-14T06:09:53.207Z,99994.31
2023-04-14T06:12:26.740Z,99985.19
2023-04-14T06:14:57.105Z,99995.72
2023-04-14T06:17:28.015Z,99995.53
2023-04-14T06:19:57.941Z,99983.94
2023-04-14T06:22:31.272Z,99983.53
2023-04-14T06:25:01.704Z,99982.72
2023-04-14T06:27:31.768Z,99977.50
2023-04-14T06:30:03.911Z,99982.28
2023-04-14T06:32:34.526Z,99980.63
2023-04-14T06:35:04.394Z,99964.44
2023-04-14T06:37:34.288Z,99956.97
2023-04-14T06:40:04.407Z,99963.41
2023-04-14T06:42:34.073Z,99954.91
2023-04-14T06:45:03.782Z,99947.84
2023-04-14T06:47:33.517Z,99940.56
2023-04-14T06:50:05.821Z,99942.03
2023-04-14T06:52:39.385Z,99941.41
2023-04-14T06:55:10.160Z,99934.34
2023-04-14T06:57:39.863Z,99934.34
2023-04-14T07:00:12.209Z,99920.25
2023-04-14T07:02:43.135Z,99915.91
2023-04-14T07:05:15.246Z,99909.69
2023-04-14T07:07:45.957Z,99902.84
2023-04-14T07:10:15.766Z,99895.78
2023-04-14T07:12:45.489Z,99893.91
2023-04-14T07:15:15.981Z,99888.53
2023-04-14T07:17:45.702Z,99889.56
2023-04-14T07:20:17.333Z,99881.72
2023-04-14T07:22:47.217Z,99883.75
2023-04-14T07:25:17.019Z,99886.47
2023-04-14T07:27:56.480Z,99881.47
2023-04-14T07:30:33.321Z,99881.47
2023-04-14T07:33:06.571Z,99873.38
2023-04-14T07:35:36.939Z,99880.66
2023-04-14T07:38:06.635Z,99884.41
2023-04-14T07:40:40.136Z,99886.50
2023-04-14T07:43:13.148Z,99881.91
2023-04-14T07:45:42.888Z,99887.31
2023-04-14T07:48:17.256Z,99896.63
2023-04-14T07:50:47.792Z,99895.63
2023-04-14T07:53:17.846Z,99892.06
2023-04-14T07:55:47.527Z,99898.31
2023-04-14T07:58:21.627Z,99902.25
2023-04-14T08:00:53.516Z,99915.31
2023-04-14T08:03:24.519Z,99918.41
2023-04-14T08:05:55.113Z,99918.19
2023-04-14T08:08:25.144Z,99909.09
2023-04-14T08:10:56.506Z,99909.50
2023-04-14T08:13:29.047Z,99902.84
2023-04-14T08:15:59.395Z,99908.03
2023-04-14T08:18:33.391Z,99909.06
2023-04-14T08:21:03.080Z,99907.84
2023-04-14T08:23:32.894Z,99914.06
2023-04-14T08:26:02.626Z,99916.78
2023-04-14T08:28:35.338Z,99912.78
2023-04-14T08:31:05.015Z,99927.09
2023-04-14T08:33:35.833Z,99925.22
2023-04-14T08:36:08.298Z,99924.41
2023-04-14T08:38:38.180Z,99929.19
2023-04-14T08:41:12.677Z,99928.56
2023-04-14T08:43:42.567Z,99922.34
2023-04-14T08:46:16.119Z,99919.84
2023-04-14T08:48:46.507Z,99935.81
2023-04-14T08:51:25.097Z,99928.78
2023-04-14T08:53:54.781Z,99923.59
2023-04-14T08:56:25.273Z,99920.06
2023-04-14T08:58:55.664Z,99926.47
2023-04-14T09:01:25.815Z,99932.69
2023-04-14T09:03:57.877Z,99923.78
2023-04-14T09:06:29.972Z,99915.09
2023-04-14T09:09:06.196Z,99913.81
2023-04-14T09:11:36.652Z,99914.03
2023-04-14T09:14:06.680Z,99921.09
2023-04-14T09:16:36.370Z,99920.25
2023-04-14T09:19:07.447Z,99918.41
2023-04-14T09:21:53.979Z,99916.75
2023-04-14T09:24:32.650Z,99916.31
2023-04-14T09:27:09.120Z,99916.31
2023-04-14T09:29:41.446Z,99922.75
2023-04-14T09:32:17.657Z,99915.72
2023-04-14T09:34:57.764Z,99910.53
2023-04-14T09:37:28.506Z,99920.88
2023-04-14T09:40:05.503Z,99919.22
2023-04-14T09:42:42.871Z,99924.00
2023-04-14T09:45:16.748Z,99931.28
2023-04-14T09:47:46.873Z,99928.38
2023-04-14T09:50:17.413Z,99934.56
2023-04-14T09:52:48.416Z,99923.19
2023-04-14T09:55:18.712Z,99930.22
2023-04-14T09:57:54.129Z,99921.31
2023-04-14T10:00:26.095Z,99922.56
2023-04-14T10:02:58.475Z,99920.47
2023-04-14T10:05:33.765Z,99924.63
2023-04-14T10:08:05.482Z,99921.72
2023-04-14T10:10:35.647Z,99918.81
2023-04-14T10:13:05.313Z,99909.91
2023-04-14T10:15:35.427Z,99911.16
2023-04-14T10:18:05.518Z,99916.34
2023-04-14T10:20:35.312Z,99902.25
2023-04-14T10:23:08.320Z,99900.38
2023-04-14T10:25:40.863Z,99897.06
2023-04-14T10:28:11.194Z,99900.38
2023-04-14T10:30:44.738Z,99911.38
2023-04-14T10:33:14.434Z,99917.38
2023-04-14T10:35:48.327Z,99914.06
2023-04-14T10:38:23.656Z,99909.69
2023-04-14T10:40:59.722Z,99909.09
2023-04-14T10:43:32.444Z,99907.22
2023-04-14T10:46:03.466Z,99907.00
2023-04-14T10:48:40.703Z,99910.97
2023-04-14T10:51:11.380Z,99916.97
2023-04-14T10:53:43.139Z,99920.28
2023-04-14T10:56:12.883Z,99921.31
2023-04-14T10:58:43.356Z,99928.38
2023-04-14T11:01:27.798Z,99930.00
2023-04-14T11:04:00.480Z,99935.81
2023-04-14T11:07:14.027Z,99929.41
2023-04-14T11:09:43.880Z,99920.09
2023-04-14T11:12:33.036Z,99913.44
2023-04-14T11:15:06.502Z,99915.72
2023-04-14T11:17:42.433Z,99911.16
2023-04-14T11:20:19.861Z,99916.75
2023-04-14T11:22:51.706Z,99917.38
2023-04-14T11:25:24.788Z,99920.91
2023-04-14T11:27:55.555Z,99920.91
2023-04-14T11:30:25.237Z,99921.91
2023-04-14T11:32:58.229Z,99922.78
2023-04-14T11:35:29.073Z,99922.97
2023-04-14T11:37:59.815Z,99930.88
2023-04-14T11:40:30.046Z,99943.47
2023-04-14T11:43:03.732Z,99941.00
2023-04-14T11:45:34.711Z,99945.16
2023-04-14T11:48:08.377Z,99940.38
2023-04-14T11:50:40.947Z,99943.47
2023-04-14T11:53:23.345Z,99946.81
2023-04-14T11:55:57.021Z,99955.28
2023-04-14T11:58:30.364Z,99944.94
2023-04-14T12:01:00.408Z,99942.88
2023-04-14T12:03:31.581Z,99943.69
2023-04-14T12:06:03.790Z,99945.56
2023-04-14T12:08:35.329Z,99950.94
2023-04-14T12:11:18.082Z,99954.25
2023-04-14T12:13:49.047Z,99955.50
2023-04-14T12:16:19.196Z,99961.13
2023-04-14T12:18:49.925Z,99966.28
2023-04-14T12:21:42.876Z,99958.22
2023-04-14T12:24:13.432Z,99959.44
2023-04-14T12:26:43.646Z,99964.41
2023-04-14T12:29:16.531Z,99952.22
2023-04-14T12:31:47.159Z,99955.72
2023-04-14T12:34:18.298Z,99952.38
2023-04-14T12:36:54.330Z,99951.78
2023-04-14T12:39:24.393Z,99955.91
2023-04-14T12:41:54.099Z,99947.84
2023-04-14T12:44:25.932Z,99942.66
2023-04-14T12:46:57.482Z,99947.84
2023-04-14T12:49:40.386Z,99949.50
2023-04-14T12:52:10.758Z,99944.53
2023-04-14T12:54:52.128Z,99944.94
2023-04-14T12:57:24.519Z,99938.72
2023-04-14T12:59:54.640Z,99936.66
2023-04-14T13:02:25.215Z,99929.41
2023-04-14T13:04:54.971Z,99933.13
2023-04-14T13:07:28.310Z,99932.09
2023-04-14T13:09:59.620Z,99919.84
2023-04-14T13:12:29.694Z,99923.38
2023-04-14T13:14:59.377Z,99926.91
2023-04-14T13:17:29.981Z,99917.97
2023-04-14T13:20:00.358Z,99910.72
2023-04-14T13:22:30.460Z,99909.06
2023-04-14T13:25:02.380Z,99904.50
2023-04-14T13:27:32.989Z,99902.88
2023-04-14T13:30:02.676Z,99887.75
2023-04-14T13:32:32.512Z,99887.75
2023-04-14T13:35:03.440Z,99883.19
2023-04-14T13:37:33.125Z,99874.28
2023-04-14T13:40:03.453Z,99865.38
2023-04-14T13:42:33.367Z,99868.06
2023-04-14T13:45:04.197Z,99864.31
2023-04-14T13:47:36.514Z,99865.38
2023-04-14T13:50:07.071Z,99866.19
2023-04-14T13:52:38.036Z,99871.59
2023-04-14T13:55:08.061Z,99878.84
2023-04-14T13:57:38.472Z,99869.09
2023-04-14T14:00:09.832Z,99862.88
2023-04-14T14:02:42.882Z,99869.28
2023-04-14T14:05:13.359Z,99860.19
2023-04-14T14:07:43.761Z,99864.72
2023-04-14T14:10:14.305Z,99863.91
2023-04-14T14:12:44.008Z,99857.69
2023-04-14T14:15:14.444Z,99863.91
2023-04-14T14:17:44.059Z,99873.03
2023-04-14T14:20:14.587Z,99876.53
2023-04-14T14:22:44.380Z,99877.59
2023-04-14T14:25:20.553Z,99871.38
2023-04-14T14:27:54.283Z,99860.59
2023-04-14T14:30:23.979Z,99857.09
2023-04-14T14:32:54.531Z,99864.13
2023-04-14T14:35:24.957Z,99863.28
2023-04-14T14:37:54.640Z,99861.66
2023-04-14T14:40:24.427Z,99866.81
2023-04-14T14:42:54.844Z,99872.41
2023-04-14T14:45:27.547Z,99866.81
2023-04-14T14:48:02.120Z,99875.94
2023-04-14T14:50:32.377Z,99869.72
2023-04-14T14:53:05.716Z,99866.38
2023-04-14T14:55:35.939Z,99851.06
2023-04-14T14:58:08.784Z,99842.16
2023-04-14T15:00:39.519Z,99853.75
2023-04-14T15:03:09.577Z,99844.00
2023-04-14T15:05:40.143Z,99845.06
2023-04-14T15:08:10.030Z,99836.16
2023-04-14T15:10:39.741Z,99832.41
2023-04-14T15:13:09.831Z,99834.28
2023-04-14T15:15:42.990Z,99835.09
2023-04-14T15:18:12.907Z,99840.50
2023-04-14T15:20:43.847Z,99837.19
2023-04-14T15:23:14.352Z,99834.50
2023-04-14T15:25:44.053Z,99830.56
2023-04-14T15:28:14.517Z,99831.81
2023-04-14T15:30:44.865Z,99838.22
2023-04-14T15:33:15.172Z,99835.31
2023-04-14T15:35:45.549Z,99828.28
2023-04-14T15:38:15.228Z,99819.34
2023-04-14T15:40:44.944Z,99820.22
2023-04-14T15:43:14.653Z,99812.97
2023-04-14T15:45:45.322Z,99823.91
2023-04-14T15:48:15.066Z,99816.47
2023-04-14T15:50:45.799Z,99818.53
2023-04-14T15:53:15.838Z,99802.38
2023-04-14T15:55:46.036Z,99800.50
2023-04-14T15:58:16.690Z,99795.13
2023-04-14T16:00:46.873Z,99793.47
2023-04-14T16:03:17.731Z,99789.13
2023-04-14T16:05:48.399Z,99776.47
2023-04-14T16:08:21.672Z,99770.66
2023-04-14T16:10:51.983Z,99771.09
2023-04-14T16:13:22.317Z,99770.28
2023-04-14T16:15:51.982Z,99766.75
2023-04-14T16:18:21.640Z,99772.13
2023-04-14T16:20:53.508Z,99774.22
2023-04-14T16:23:23.525Z,99774.00
2023-04-14T16:25:53.208Z,99769.66
2023-04-14T16:28:24.550Z,99771.31
2023-04-14T16:30:55.252Z,99763.84
2023-04-14T16:33:26.146Z,99755.97
2023-04-14T16:36:00.733Z,99753.28
2023-04-14T16:38:31.060Z,99747.28
2023-04-14T16:41:00.880Z,99751.81
2023-04-14T16:43:31.350Z,99752.88
2023-04-14T16:46:05.660Z,99749.13
2023-04-14T16:48:39.226Z,99739.63
2023-04-14T16:51:12.777Z,99736.53
2023-04-14T16:53:43.031Z,99727.81
2023-04-14T16:56:16.231Z,99723.47
2023-04-14T16:58:46.843Z,99716.00
2023-04-14T17:01:17.021Z,99713.28
2023-04-14T17:03:46.986Z,99724.06
2023-04-14T17:06:17.953Z,99714.13
2023-04-14T17:08:49.107Z,99710.81
2023-04-14T17:11:19.393Z,99718.69
2023-04-14T17:13:53.903Z,99724.91
2023-04-14T17:16:24.268Z,99715.16
2023-04-14T17:18:59.772Z,99712.69
2023-04-14T17:21:28.738Z,99711.88
2023-04-14T17:23:58.406Z,99703.38
2023-04-14T17:26:28.602Z,99704.63
2023-04-14T17:28:58.234Z,99715.16
2023-04-14T17:31:28.769Z,99715.38
2023-04-14T17:33:58.554Z,99707.31
2023-04-14T17:36:28.766Z,99702.75
2023-04-14T17:38:59.121Z,99693.63
2023-04-14T17:41:30.149Z,99689.88
2023-04-14T17:44:03.469Z,99684.13
2023-04-14T17:46:36.832Z,99678.28
2023-04-14T17:49:06.526Z,99670.22
2023-04-14T17:51:36.860Z,99672.91
2023-04-14T17:54:09.228Z,99659.25
2023-04-14T17:56:38.984Z,99657.78
2023-04-14T17:59:09.073Z,99645.97
2023-04-14T18:01:39.847Z,99637.91
2023-04-14T18:04:10.422Z,99643.50
2023-04-14T18:06:43.200Z,99636.25
2023-04-14T18:09:14.542Z,99633.34
2023-04-14T18:11:46.005Z,99631.50
2023-04-14T18:14:17.952Z,99629.63
2023-04-14T18:16:48.648Z,99611.59
2023-04-14T18:19:19.435Z,99600.81
2023-04-14T18:21:49.847Z,99613.25
2023-04-14T18:26:57.166Z,99597.31
2023-04-14T18:29:27.324Z,99592.75
2023-04-14T18:31:58.109Z,99594.81
2023-04-14T18:34:27.842Z,99598.13
2023-04-14T18:36:57.956Z,99591.91
2023-04-14T18:39:27.970Z,99598.31
2023-04-14T18:41:58.276Z,99594.44
2023-04-14T18:44:28.555Z,99592.13
2023-04-14T18:46:59.268Z,99590.25
2023-04-14T18:49:29.846Z,99588.59
2023-04-14T18:52:00.301Z,99590.69
2023-04-14T18:54:30.105Z,99591.28
2023-04-14T18:56:59.811Z,99586.94
2023-04-14T18:59:33.312Z,99595.03
2023-04-14T19:02:06.160Z,99601.69
2023-04-14T19:04:36.042Z,99603.09
2023-04-14T19:07:05.680Z,99587.16
2023-04-14T19:09:37.627Z,99587.16
2023-04-14T19:12:15.554Z,99584.91
2023-04-14T19:14:55.636Z,99574.75
2023-04-14T19:17:25.495Z,99577.44
2023-04-14T19:19:56.505Z,99574.75
2023-04-14T19:22:27.229Z,99576.81
2023-04-14T19:24:57.427Z,99574.75
2023-04-14T19:27:27.080Z,99553.63
2023-04-14T19:29:58.572Z,99553.41
2023-04-14T19:32:28.213Z,99549.47
2023-04-14T19:34:57.989Z,99547.19
2023-04-14T19:37:28.146Z,99536.66
2023-04-14T19:39:58.791Z,99531.25
2023-04-14T19:42:28.827Z,99520.69
2023-04-14T19:45:02.409Z,99519.66
2023-04-14T19:47:32.131Z,99532.50
2023-04-14T19:50:02.618Z,99529.63
2023-04-14T19:52:32.312Z,99538.94
2023-04-14T19:55:01.976Z,99538.53
2023-04-14T19:57:31.675Z,99531.25
2023-04-14T20:00:01.385Z,99542.22
2023-04-14T20:02:31.446Z,99538.94
2023-04-14T20:05:01.334Z,99545.38
2023-04-14T20:07:31.896Z,99534.97
2023-04-14T20:10:02.952Z,99545.16
2023-04-14T20:12:33.367Z,99537.72
2023-04-14T20:15:03.715Z,99540.19
2023-04-14T20:17:33.460Z,99538.94
2023-04-14T20:20:08.561Z,99538.94
2023-04-14T20:22:41.463Z,99533.16
2023-04-14T20:25:11.990Z,99540.00
2023-04-14T20:27:42.518Z,99530.88
2023-04-14T20:30:14.449Z,99529.63
2023-04-14T20:32:44.271Z,99537.72
2023-04-14T20:35:13.988Z,99524.25
2023-04-14T20:37:43.818Z,99526.34
2023-04-14T20:40:13.702Z,99530.03
2023-04-14T20:42:44.404Z,99524.06
2023-04-14T20:45:15.071Z,99530.69
2023-04-14T20:47:44.699Z,99527.81
2023-04-14T20:50:17.048Z,99528.41
2023-04-14T20:52:46.956Z,99521.78
2023-04-14T20:55:17.292Z,99529.03
2023-04-14T20:57:50.822Z,99518.09
2023-04-14T21:00:23.193Z,99519.56
2023-04-14T21:02:56.653Z,99513.81
2023-04-14T21:05:27.816Z,99520.22
2023-04-14T21:07:58.662Z,99519.03
2023-04-14T21:10:29.524Z,99511.97
2023-04-14T21:15:41.418Z,99514.06
2023-04-14T21:15:56.819Z,99509.94
2023-04-14T21:18:27.610Z,99503.31
2023-04-14T21:20:58.587Z,99505.41
2023-04-14T21:23:31.184Z,99506.44
2023-04-14T21:26:05.865Z,99501.22
2023-04-14T21:28:36.984Z,99508.47
2023-04-14T21:31:07.534Z,99505.41
2023-04-14T21:33:38.099Z,99506.22
2023-04-14T21:36:12.285Z,99505.38
2023-04-14T21:38:42.856Z,99501.66
2023-04-14T21:41:12.607Z,99502.06
2023-04-14T21:43:42.677Z,99504.13
2023-04-14T21:46:12.421Z,99493.16
2023-04-14T21:48:44.548Z,99494.44
2023-04-14T21:51:14.299Z,99490.91
2023-04-14T21:53:45.600Z,99488.84
2023-04-14T21:56:16.457Z,99495.84
2023-04-14T21:58:47.417Z,99483.25
2023-04-14T22:01:19.807Z,99492.13
2023-04-14T22:03:49.628Z,99491.09
2023-04-14T22:06:20.791Z,99495.66
2023-04-14T22:08:50.443Z,99486.75
2023-04-14T22:11:21.525Z,99479.72
2023-04-14T22:13:51.664Z,99489.44
2023-04-14T22:16:21.571Z,99495.47
2023-04-14T22:18:51.271Z,99494.41
2023-04-14T22:21:21.475Z,99500.63
2023-04-14T22:23:51.140Z,99506.00
2023-04-14T22:26:21.189Z,99503.72
2023-04-14T22:28:50.874Z,99506.19
2023-04-14T22:31:20.613Z,99512.63
2023-04-14T22:33:50.276Z,99497.75
2023-04-14T22:36:20.008Z,99496.06
2023-04-14T22:38:50.730Z,99498.13
2023-04-14T22:41:20.436Z,99502.28
2023-04-14T22:43:50.139Z,99497.50
2023-04-14T22:46:24.761Z,99500.59
2023-04-14T22:48:54.440Z,99501.22
2023-04-14T22:51:24.774Z,99504.53
2023-04-14T22:53:59.869Z,99503.72
2023-04-14T22:56:30.330Z,99498.94
2023-04-14T22:59:00.468Z,99492.13
2023-04-14T23:01:34.602Z,99499.34
2023-04-14T23:04:04.521Z,99498.09
2023-04-14T23:06:34.942Z,99492.09
2023-04-14T23:09:05.466Z,99487.94
2023-04-14T23:11:35.649Z,99483.16
2023-04-14T23:14:08.135Z,99477.75
2023-04-14T23:16:38.870Z,99469.50
2023-04-14T23:19:09.186Z,99466.81
2023-04-14T23:21:40.436Z,99460.59
2023-04-14T23:24:10.259Z,99462.28
2023-04-14T23:26:40.810Z,99462.47
2023-04-14T23:29:10.472Z,99466.34
2023-04-14T23:31:41.679Z,99462.66
2023-04-14T23:34:14.348Z,99469.22
2023-04-14T23:36:45.146Z,99462.63
2023-04-14T23:39:14.796Z,99468.22
2023-04-14T23:41:45.188Z,99467.41
2023-04-14T23:44:15.600Z,99457.88
2023-04-14T23:46:45.388Z,99473.97
2023-04-14T23:49:23.742Z,99467.78
2023-04-14T23:51:54.587Z,99459.88
2023-04-14T23:54:24.216Z,99459.50
2023-04-14T23:56:54.320Z,99463.41
2023-04-14T23:59:24.486Z,99459.69
